createdAt,value
2018-04-23T00:00:37.625Z,21.87
2018-04-23T00:03:05.916Z,21.92
2018-04-23T00:05:34.195Z,21.66
2018-04-23T00:08:02.474Z,21.43
2018-04-23T00:10:30.766Z,21.34
2018-04-23T00:12:59.051Z,21.41
2018-04-23T00:15:27.326Z,21.41
2018-04-23T00:17:55.614Z,21.23
2018-04-23T00:20:23.890Z,21.25
2018-04-23T00:22:52.182Z,21.09
2018-04-23T00:25:20.463Z,20.94
2018-04-23T00:27:48.754Z,20.79
2018-04-23T00:30:17.039Z,20.51
2018-04-23T00:32:45.307Z,20.40
2018-04-23T00:35:13.595Z,20.34
2018-04-23T00:37:41.858Z,20.27
2018-04-23T00:40:10.146Z,20.35
2018-04-23T00:42:38.415Z,20.41
2018-04-23T00:45:06.702Z,20.47
2018-04-23T00:47:34.974Z,20.44
2018-04-23T00:50:03.259Z,20.29
2018-04-23T00:52:31.538Z,20.18
2018-04-23T00:54:59.822Z,19.96
2018-04-23T00:57:28.094Z,19.94
2018-04-23T00:59:56.395Z,20.10
2018-04-23T01:02:24.661Z,20.01
2018-04-23T01:04:53.914Z,19.84
2018-04-23T01:07:22.194Z,19.85
2018-04-23T01:09:50.470Z,19.87
2018-04-23T01:12:18.774Z,19.91
2018-04-23T01:14:47.051Z,20.18
2018-04-23T01:17:15.586Z,20.19
2018-04-23T01:19:43.863Z,20.15
2018-04-23T01:22:12.136Z,20.15
2018-04-23T01:24:40.410Z,20.37
2018-04-23T01:27:08.696Z,20.31
2018-04-23T01:29:36.987Z,20.23
2018-04-23T01:32:05.263Z,19.96
2018-04-23T01:34:33.543Z,20.18
2018-04-23T01:37:01.817Z,19.98
2018-04-23T01:39:30.098Z,19.76
2018-04-23T01:41:58.370Z,19.97
2018-04-23T01:44:26.657Z,20.11
2018-04-23T01:46:54.937Z,20.22
2018-04-23T01:49:23.234Z,19.93
2018-04-23T01:51:52.530Z,20.26
2018-04-23T01:54:20.802Z,20.28
2018-04-23T01:56:49.087Z,20.25
2018-04-23T01:59:17.392Z,20.19
2018-04-23T02:01:45.654Z,20.07
2018-04-23T02:04:13.930Z,20.18
2018-04-23T02:06:42.212Z,20.10
2018-04-23T02:09:10.495Z,20.10
2018-04-23T02:11:39.598Z,19.84
2018-04-23T02:14:07.891Z,19.67
2018-04-23T02:16:36.164Z,19.28
2018-04-23T02:19:04.454Z,19.33
2018-04-23T02:21:32.731Z,19.41
2018-04-23T02:24:01.000Z,19.30
2018-04-23T02:26:29.286Z,19.67
2018-04-23T02:28:57.557Z,19.70
2018-04-23T02:31:25.831Z,19.31
2018-04-23T02:33:54.111Z,19.52
2018-04-23T02:36:22.398Z,19.43
2018-04-23T02:38:50.667Z,19.33
2018-04-23T02:41:18.962Z,19.63
2018-04-23T02:43:47.240Z,19.39
2018-04-23T02:46:15.519Z,19.29
2018-04-23T02:48:43.810Z,19.35
2018-04-23T02:51:12.084Z,19.45
2018-04-23T02:53:40.371Z,19.46
2018-04-23T02:56:08.642Z,19.52
2018-04-23T02:58:36.945Z,19.45
2018-04-23T03:01:05.266Z,19.45
2018-04-23T03:03:33.567Z,19.51
2018-04-23T03:06:01.841Z,19.47
2018-04-23T03:08:30.155Z,19.39
2018-04-23T03:10:58.439Z,19.46
2018-04-23T03:13:26.710Z,19.40
2018-04-23T03:15:54.999Z,19.53
2018-04-23T03:18:23.278Z,19.63
2018-04-23T03:20:51.554Z,19.61
2018-04-23T03:23:19.833Z,19.63
2018-04-23T03:25:48.124Z,19.58
2018-04-23T03:28:16.451Z,19.48
2018-04-23T03:30:44.741Z,19.60
2018-04-23T03:33:13.013Z,19.52
2018-04-23T03:35:41.312Z,19.57
2018-04-23T03:38:09.582Z,19.69
2018-04-23T03:40:37.879Z,19.42
2018-04-23T03:43:06.158Z,19.22
2018-04-23T03:45:34.446Z,19.49
2018-04-23T03:48:02.722Z,19.49
2018-04-23T03:50:31.030Z,19.38
2018-04-23T03:52:59.277Z,19.37
2018-04-23T03:55:27.555Z,19.37
2018-04-23T03:57:55.838Z,19.39
2018-04-23T04:00:24.106Z,19.30
2018-04-23T04:02:52.394Z,19.29
2018-04-23T04:05:20.673Z,19.25
2018-04-23T04:07:48.961Z,19.33
2018-04-23T04:10:17.247Z,19.33
2018-04-23T04:12:57.416Z,19.05
2018-04-23T04:15:37.362Z,19.30
2018-04-23T04:21:19.705Z,18.98
2018-04-23T04:23:47.998Z,19.03
2018-04-23T04:26:16.286Z,19.07
2018-04-23T04:28:44.574Z,19.13
2018-04-23T04:31:12.855Z,19.17
2018-04-23T04:33:41.130Z,19.29
2018-04-23T04:36:09.410Z,19.24
2018-04-23T04:38:37.696Z,19.32
2018-04-23T04:41:05.979Z,19.20
2018-04-23T04:43:34.310Z,19.02
2018-04-23T04:46:02.557Z,19.09
2018-04-23T04:48:30.837Z,19.17
2018-04-23T04:50:59.123Z,19.22
2018-04-23T04:53:27.414Z,19.23
2018-04-23T04:55:55.688Z,19.21
2018-04-23T04:58:23.973Z,19.02
2018-04-23T05:00:52.640Z,19.16
2018-04-23T05:03:20.926Z,19.22
2018-04-23T05:05:49.206Z,19.18
2018-04-23T05:08:17.484Z,19.06
2018-04-23T05:10:45.774Z,18.79
2018-04-23T05:13:14.078Z,18.96
2018-04-23T05:15:42.378Z,19.09
2018-04-23T05:18:10.672Z,19.20
2018-04-23T05:20:38.959Z,19.14
2018-04-23T05:23:07.252Z,19.19
2018-04-23T05:25:35.534Z,19.03
2018-04-23T05:28:03.810Z,19.18
2018-04-23T05:30:32.087Z,19.06
2018-04-23T05:33:00.366Z,19.12
2018-04-23T05:35:28.642Z,19.16
2018-04-23T05:37:56.933Z,18.92
2018-04-23T05:40:25.202Z,18.92
2018-04-23T05:42:53.489Z,18.87
2018-04-23T05:45:21.771Z,18.97
2018-04-23T05:47:50.063Z,19.14
2018-04-23T05:50:18.363Z,19.19
2018-04-23T05:52:46.666Z,19.32
2018-04-23T05:55:14.941Z,19.36
2018-04-23T05:57:43.222Z,19.31
2018-04-23T06:00:11.510Z,19.43
2018-04-23T06:02:39.790Z,19.24
2018-04-23T06:05:08.134Z,19.58
2018-04-23T06:07:36.397Z,19.22
2018-04-23T06:10:04.695Z,18.87
2018-04-23T06:12:32.974Z,19.13
2018-04-23T06:15:01.259Z,19.09
2018-04-23T06:17:29.547Z,19.01
2018-04-23T06:19:57.818Z,19.22
2018-04-23T06:22:26.112Z,19.22
2018-04-23T06:24:54.385Z,19.31
2018-04-23T06:27:22.663Z,19.19
2018-04-23T06:29:50.953Z,19.49
2018-04-23T06:32:19.226Z,19.49
2018-04-23T06:34:47.530Z,19.54
2018-04-23T06:37:15.814Z,19.66
2018-04-23T06:39:44.118Z,19.59
2018-04-23T06:42:12.403Z,19.69
2018-04-23T06:44:40.687Z,19.84
2018-04-23T06:47:08.962Z,19.94
2018-04-23T06:49:37.252Z,19.80
2018-04-23T06:52:05.519Z,19.82
2018-04-23T06:54:33.792Z,19.93
2018-04-23T06:57:02.067Z,19.88
2018-04-23T06:59:30.342Z,19.90
2018-04-23T07:01:58.645Z,19.59
2018-04-23T07:04:26.923Z,19.54
2018-04-23T07:06:55.198Z,19.50
2018-04-23T07:09:23.475Z,19.40
2018-04-23T07:11:51.753Z,19.40
2018-04-23T07:14:20.068Z,19.51
2018-04-23T07:16:48.344Z,19.49
2018-04-23T07:19:16.618Z,19.44
2018-04-23T07:21:44.927Z,19.39
2018-04-23T07:24:13.255Z,19.32
2018-04-23T07:26:42.363Z,19.54
2018-04-23T07:29:10.639Z,19.62
2018-04-23T07:31:38.919Z,19.78
2018-04-23T07:34:07.210Z,19.62
2018-04-23T07:36:35.487Z,19.71
2018-04-23T07:39:03.777Z,19.69
2018-04-23T07:41:32.052Z,19.39
2018-04-23T07:44:00.329Z,19.36
2018-04-23T07:46:28.610Z,19.10
2018-04-23T07:48:56.898Z,19.33
2018-04-23T07:51:25.191Z,19.20
2018-04-23T07:53:53.474Z,19.46
2018-04-23T07:56:21.753Z,19.76
2018-04-23T07:58:50.055Z,19.54
2018-04-23T08:01:18.330Z,19.79
2018-04-23T08:03:46.622Z,19.95
2018-04-23T08:06:14.926Z,19.87
2018-04-23T08:08:43.204Z,19.84
2018-04-23T08:11:11.495Z,19.92
2018-04-23T08:13:39.778Z,19.84
2018-04-23T08:16:08.095Z,19.67
2018-04-23T08:18:36.382Z,20.52
2018-04-23T08:21:04.663Z,21.09
2018-04-23T08:23:33.877Z,22.23
2018-04-23T08:26:02.147Z,22.02
2018-04-23T08:28:30.438Z,22.60
2018-04-23T08:30:58.734Z,21.98
2018-04-23T08:33:27.154Z,21.60
2018-04-23T08:35:55.455Z,22.07
2018-04-23T08:38:23.732Z,22.61
2018-04-23T08:40:52.026Z,22.84
2018-04-23T08:43:20.302Z,23.72
2018-04-23T08:45:48.594Z,22.79
2018-04-23T08:48:16.892Z,22.50
2018-04-23T08:50:45.174Z,22.57
2018-04-23T08:53:13.456Z,22.40
2018-04-23T08:55:41.724Z,23.37
2018-04-23T08:58:10.030Z,24.30
2018-04-23T09:00:38.310Z,23.19
2018-04-23T09:03:06.858Z,23.97
2018-04-23T09:05:35.145Z,23.60
2018-04-23T09:08:03.435Z,24.31
2018-04-23T09:10:31.721Z,24.88
2018-04-23T09:13:00.015Z,23.61
2018-04-23T09:15:28.306Z,22.84
2018-04-23T09:17:56.588Z,22.73
2018-04-23T09:20:24.865Z,22.31
2018-04-23T09:22:53.161Z,22.28
2018-04-23T09:25:21.439Z,21.50
2018-04-23T09:27:49.759Z,21.98
2018-04-23T09:30:18.034Z,22.20
2018-04-23T09:32:46.321Z,23.08
2018-04-23T09:35:14.625Z,22.76
2018-04-23T09:37:42.898Z,22.57
2018-04-23T09:40:11.191Z,22.54
2018-04-23T09:42:39.470Z,22.20
2018-04-23T09:45:07.751Z,21.79
2018-04-23T09:47:37.639Z,22.64
2018-04-23T09:50:05.985Z,22.46
2018-04-23T09:52:34.245Z,22.39
2018-04-23T09:55:02.519Z,22.26
2018-04-23T09:57:30.811Z,21.98
2018-04-23T10:00:00.103Z,21.54
2018-04-23T10:02:28.374Z,21.52
2018-04-23T10:04:56.663Z,21.09
2018-04-23T10:07:24.949Z,20.93
2018-04-23T10:09:53.250Z,20.49
2018-04-23T10:12:21.546Z,20.84
2018-04-23T10:14:49.863Z,21.34
2018-04-23T10:17:18.176Z,21.18
2018-04-23T10:19:46.463Z,21.12
2018-04-23T10:22:14.766Z,21.47
2018-04-23T10:24:43.054Z,22.02
2018-04-23T10:27:11.351Z,21.50
2018-04-23T10:29:39.643Z,21.43
2018-04-23T10:32:07.955Z,21.08
2018-04-23T10:34:36.246Z,21.12
2018-04-23T10:37:04.527Z,20.93
2018-04-23T10:39:32.838Z,21.46
2018-04-23T10:42:01.131Z,21.34
2018-04-23T10:44:29.433Z,21.55
2018-04-23T10:46:57.703Z,21.51
2018-04-23T10:49:26.018Z,20.82
2018-04-23T10:51:54.314Z,20.93
2018-04-23T10:54:22.620Z,21.40
2018-04-23T10:56:50.917Z,21.36
2018-04-23T10:59:19.202Z,21.06
2018-04-23T11:01:47.519Z,21.13
2018-04-23T11:04:15.807Z,21.26
2018-04-23T11:06:44.258Z,21.30
2018-04-23T11:09:12.550Z,21.60
2018-04-23T11:11:40.842Z,21.25
2018-04-23T11:14:09.144Z,21.42
2018-04-23T11:16:37.422Z,21.47
2018-04-23T11:19:05.703Z,22.01
2018-04-23T11:21:33.999Z,21.98
2018-04-23T11:24:02.274Z,22.07
2018-04-23T11:26:30.599Z,22.20
2018-04-23T11:28:58.950Z,21.80
2018-04-23T11:31:27.227Z,21.74
2018-04-23T11:33:55.517Z,21.62
2018-04-23T11:36:23.852Z,22.21
2018-04-23T11:38:52.115Z,21.91
2018-04-23T11:41:20.399Z,21.92
2018-04-23T11:43:48.681Z,22.02
2018-04-23T11:46:16.975Z,22.00
2018-04-23T11:48:45.258Z,22.17
2018-04-23T11:51:13.550Z,22.39
2018-04-23T11:53:41.837Z,22.70
2018-04-23T11:56:10.120Z,22.39
2018-04-23T11:58:38.401Z,22.64
2018-04-23T12:01:06.694Z,23.01
2018-04-23T12:03:34.978Z,22.88
2018-04-23T12:06:03.266Z,23.03
2018-04-23T12:08:31.559Z,22.88
2018-04-23T12:10:59.841Z,23.22
2018-04-23T12:13:28.151Z,23.11
2018-04-23T12:15:56.418Z,23.11
2018-04-23T12:18:24.723Z,22.83
2018-04-23T12:20:53.001Z,23.28
2018-04-23T12:23:21.951Z,22.33
2018-04-23T12:25:50.497Z,22.89
2018-04-23T12:28:18.766Z,22.93
2018-04-23T12:30:47.048Z,23.02
2018-04-23T12:33:15.331Z,22.97
2018-04-23T12:35:43.602Z,23.02
2018-04-23T12:38:11.915Z,22.64
2018-04-23T12:40:40.182Z,22.21
2018-04-23T12:43:08.458Z,21.94
2018-04-23T12:45:36.743Z,22.11
2018-04-23T12:48:05.011Z,22.01
2018-04-23T12:50:33.310Z,22.22
2018-04-23T12:53:01.589Z,22.42
2018-04-23T12:55:29.859Z,22.86
2018-04-23T12:57:58.147Z,22.81
2018-04-23T13:00:26.423Z,23.17
2018-04-23T13:02:54.702Z,22.70
2018-04-23T13:05:22.978Z,23.19
2018-04-23T13:07:51.251Z,23.40
2018-04-23T13:10:19.546Z,23.50
2018-04-23T13:12:47.970Z,22.90
2018-04-23T13:15:16.253Z,23.34
2018-04-23T13:17:44.531Z,23.32
2018-04-23T13:20:12.807Z,23.54
2018-04-23T13:22:41.087Z,23.36
2018-04-23T13:25:09.362Z,23.16
2018-04-23T13:27:37.650Z,23.10
2018-04-23T13:30:05.931Z,23.31
2018-04-23T13:32:34.202Z,23.36
2018-04-23T13:35:02.483Z,23.26
2018-04-23T13:37:30.759Z,23.39
2018-04-23T13:39:59.039Z,23.54
2018-04-23T13:42:27.361Z,23.99
2018-04-23T13:44:55.846Z,23.71
2018-04-23T13:47:24.125Z,23.92
2018-04-23T13:49:52.432Z,23.69
2018-04-23T13:52:20.709Z,23.71
2018-04-23T13:54:48.978Z,23.67
2018-04-23T13:57:17.278Z,23.87
2018-04-23T13:59:45.551Z,23.39
2018-04-23T14:02:13.847Z,24.37
2018-04-23T14:04:42.122Z,23.74
2018-04-23T14:07:10.402Z,23.87
2018-04-23T14:09:38.679Z,23.87
2018-04-23T14:12:06.954Z,24.37
2018-04-23T14:14:35.244Z,24.05
2018-04-23T14:17:03.513Z,23.98
2018-04-23T14:19:31.821Z,24.09
2018-04-23T14:22:00.094Z,24.45
2018-04-23T14:24:29.050Z,23.78
2018-04-23T14:26:57.330Z,23.76
2018-04-23T14:29:25.595Z,23.77
2018-04-23T14:31:53.977Z,24.03
2018-04-23T14:34:22.258Z,24.26
2018-04-23T14:36:50.530Z,24.25
2018-04-23T14:39:18.838Z,24.47
2018-04-23T14:41:47.108Z,24.55
2018-04-23T14:44:15.405Z,24.44
2018-04-23T14:46:43.754Z,24.16
2018-04-23T14:49:12.047Z,24.48
2018-04-23T14:51:40.323Z,24.23
2018-04-23T14:54:08.599Z,24.32
2018-04-23T14:56:36.885Z,24.36
2018-04-23T14:59:05.169Z,24.22
2018-04-23T15:01:33.811Z,24.30
2018-04-23T15:04:02.098Z,23.42
2018-04-23T15:06:30.398Z,23.01
2018-04-23T15:08:59.376Z,22.84
2018-04-23T15:11:27.654Z,23.06
2018-04-23T15:13:55.941Z,23.41
2018-04-23T15:16:24.212Z,23.42
2018-04-23T15:18:52.494Z,22.90
2018-04-23T15:21:20.774Z,22.79
2018-04-23T15:23:49.066Z,22.55
2018-04-23T15:26:17.346Z,22.59
2018-04-23T15:28:45.623Z,22.81
2018-04-23T15:31:13.912Z,22.24
2018-04-23T15:33:42.296Z,21.97
2018-04-23T15:36:10.567Z,21.95
2018-04-23T15:38:38.846Z,22.12
2018-04-23T15:41:07.149Z,22.23
2018-04-23T15:43:35.405Z,22.42
2018-04-23T15:46:03.685Z,22.22
2018-04-23T15:48:31.954Z,21.76
2018-04-23T15:51:00.263Z,21.82
2018-04-23T15:53:28.546Z,21.78
2018-04-23T15:55:56.841Z,21.98
2018-04-23T15:58:37.414Z,22.04
2018-04-23T16:01:05.702Z,22.19
2018-04-23T16:03:33.974Z,21.98
2018-04-23T16:06:02.256Z,22.05
2018-04-23T16:08:30.548Z,21.72
2018-04-23T16:10:58.830Z,21.44
2018-04-23T16:13:27.118Z,21.31
2018-04-23T16:15:55.387Z,21.36
2018-04-23T16:18:23.658Z,21.39
2018-04-23T16:20:51.963Z,21.37
2018-04-23T16:23:20.248Z,21.16
2018-04-23T16:25:48.554Z,21.31
2018-04-23T16:28:16.903Z,21.18
2018-04-23T16:30:45.187Z,21.33
2018-04-23T16:33:13.479Z,21.26
2018-04-23T16:35:41.767Z,21.46
2018-04-23T16:38:10.083Z,21.55
2018-04-23T16:40:38.340Z,21.47
2018-04-23T16:43:06.659Z,21.21
2018-04-23T16:45:34.934Z,21.30
2018-04-23T16:48:03.255Z,21.31
2018-04-23T16:50:31.642Z,21.11
2018-04-23T16:52:59.923Z,20.78
2018-04-23T16:55:28.195Z,20.92
2018-04-23T16:57:57.420Z,20.61
2018-04-23T17:00:25.686Z,20.67
2018-04-23T17:02:54.094Z,20.61
2018-04-23T17:05:22.374Z,20.95
2018-04-23T17:07:51.012Z,20.90
2018-04-23T17:10:19.289Z,20.93
2018-04-23T17:12:47.562Z,21.12
2018-04-23T17:15:15.850Z,21.10
2018-04-23T17:17:44.129Z,20.76
2018-04-23T17:20:12.431Z,20.45
2018-04-23T17:22:40.719Z,20.37
2018-04-23T17:25:09.011Z,20.44
2018-04-23T17:27:37.289Z,20.26
2018-04-23T17:30:05.563Z,20.26
2018-04-23T17:32:34.312Z,20.12
2018-04-23T17:35:02.545Z,20.30
2018-04-23T17:37:30.810Z,20.27
2018-04-23T17:39:59.093Z,20.19
2018-04-23T17:42:27.373Z,20.25
2018-04-23T17:44:55.914Z,20.16
2018-04-23T17:47:24.186Z,20.10
2018-04-23T17:49:52.464Z,20.14
2018-04-23T17:52:20.754Z,20.02
2018-04-23T17:54:49.087Z,19.88
2018-04-23T17:57:17.399Z,19.79
2018-04-23T17:59:45.686Z,19.79
2018-04-23T18:02:13.959Z,19.63
2018-04-23T18:04:42.276Z,19.58
2018-04-23T18:07:10.538Z,19.64
2018-04-23T18:09:38.876Z,19.74
2018-04-23T18:12:07.148Z,19.78
2018-04-23T18:14:35.424Z,19.64
2018-04-23T18:17:03.715Z,19.82
2018-04-23T18:19:31.994Z,19.99
2018-04-23T18:22:00.552Z,19.90
2018-04-23T18:24:28.863Z,19.79
2018-04-23T18:26:57.146Z,19.82
2018-04-23T18:29:25.438Z,19.75
2018-04-23T18:31:56.037Z,19.60
2018-04-23T18:34:24.307Z,19.79
2018-04-23T18:36:52.590Z,19.63
2018-04-23T18:39:20.875Z,19.71
2018-04-23T18:41:49.155Z,19.77
2018-04-23T18:44:17.426Z,19.46
2018-04-23T18:46:46.630Z,19.38
2018-04-23T18:49:14.907Z,19.42
2018-04-23T18:51:43.182Z,19.44
2018-04-23T18:54:11.466Z,19.41
2018-04-23T18:56:39.745Z,19.28
2018-04-23T18:59:08.025Z,19.34
2018-04-23T19:01:36.301Z,19.32
2018-04-23T19:04:04.582Z,19.31
2018-04-23T19:06:32.853Z,19.20
2018-04-23T19:09:01.151Z,19.16
2018-04-23T19:11:29.457Z,19.18
2018-04-23T19:13:57.726Z,19.19
2018-04-23T19:16:26.051Z,19.18
2018-04-23T19:18:54.316Z,19.00
2018-04-23T19:21:22.729Z,19.10
2018-04-23T19:23:51.046Z,19.08
2018-04-23T19:26:19.321Z,18.98
2018-04-23T19:28:47.606Z,18.85
2018-04-23T19:31:15.883Z,18.84
2018-04-23T19:33:44.190Z,18.86
2018-04-23T19:36:12.456Z,18.85
2018-04-23T19:38:40.825Z,18.79
2018-04-23T19:41:09.015Z,18.74
2018-04-23T19:43:37.286Z,18.75
2018-04-23T19:46:05.581Z,18.72
2018-04-23T19:48:33.838Z,18.61
2018-04-23T19:51:03.076Z,18.62
2018-04-23T19:53:31.376Z,18.52
2018-04-23T19:55:59.651Z,18.68
2018-04-23T19:58:27.936Z,18.38
2018-04-23T20:00:56.206Z,18.49
2018-04-23T20:03:24.490Z,18.24
2018-04-23T20:05:52.786Z,18.21
2018-04-23T20:08:21.055Z,18.26
2018-04-23T20:10:49.342Z,18.07
2018-04-23T20:13:17.614Z,17.95
2018-04-23T20:15:45.931Z,18.15
2018-04-23T20:18:17.829Z,18.00
2018-04-23T20:20:46.130Z,18.01
2018-04-23T20:23:14.504Z,17.79
2018-04-23T20:25:42.869Z,17.97
2018-04-23T20:28:11.142Z,17.81
2018-04-23T20:30:39.417Z,17.89
2018-04-23T20:33:07.827Z,17.96
2018-04-23T20:35:36.108Z,17.91
2018-04-23T20:38:04.394Z,17.79
2018-04-23T20:40:32.745Z,17.80
2018-04-23T20:43:01.004Z,17.82
2018-04-23T20:45:29.282Z,17.68
2018-04-23T20:47:57.555Z,17.76
2018-04-23T20:50:25.848Z,17.67
2018-04-23T20:52:54.123Z,17.69
2018-04-23T20:55:22.403Z,17.58
2018-04-23T20:57:50.692Z,17.54
2018-04-23T21:00:18.975Z,17.48
2018-04-23T21:02:47.253Z,17.52
2018-04-23T21:05:15.526Z,17.37
2018-04-23T21:07:43.810Z,17.15
2018-04-23T21:10:12.082Z,17.22
2018-04-23T21:12:40.400Z,16.96
2018-04-23T21:15:08.655Z,17.01
2018-04-23T21:17:37.871Z,16.94
2018-04-23T21:20:06.150Z,17.00
2018-04-23T21:22:34.425Z,16.93
2018-04-23T21:25:02.698Z,16.93
2018-04-23T21:27:30.978Z,16.83
2018-04-23T21:29:59.250Z,16.76
2018-04-23T21:32:27.527Z,16.70
2018-04-23T21:34:55.801Z,16.55
2018-04-23T21:37:24.087Z,16.68
2018-04-23T21:39:52.354Z,16.59
2018-04-23T21:42:20.637Z,16.71
2018-04-23T21:44:48.909Z,16.49
2018-04-23T21:47:17.186Z,16.42
2018-04-23T21:49:45.619Z,16.38
2018-04-23T21:52:14.471Z,16.30
2018-04-23T21:54:42.763Z,16.42
2018-04-23T21:57:11.041Z,16.36
2018-04-23T21:59:39.335Z,16.22
2018-04-23T22:02:08.006Z,16.17
2018-04-23T22:04:36.270Z,16.19
2018-04-23T22:07:04.558Z,16.32
2018-04-23T22:09:32.834Z,16.36
2018-04-23T22:12:01.122Z,16.49
2018-04-23T22:14:29.401Z,16.41
2018-04-23T22:16:57.774Z,16.23
2018-04-23T22:19:25.962Z,16.32
2018-04-23T22:21:54.278Z,16.22
2018-04-23T22:24:22.558Z,16.18
2018-04-23T22:26:50.834Z,16.26
2018-04-23T22:29:19.118Z,16.30
2018-04-23T22:31:47.390Z,16.26
2018-04-23T22:34:15.803Z,16.32
2018-04-23T22:36:44.050Z,16.23
2018-04-23T22:39:12.323Z,16.23
2018-04-23T22:41:40.603Z,16.23
2018-04-23T22:44:08.870Z,16.18
2018-04-23T22:46:37.154Z,16.10
2018-04-23T22:49:05.426Z,16.06
2018-04-23T22:51:33.699Z,15.95
2018-04-23T22:54:01.988Z,15.84
2018-04-23T22:56:30.252Z,15.98
2018-04-23T22:58:58.539Z,15.87
2018-04-23T23:01:26.810Z,15.71
2018-04-23T23:03:55.086Z,15.71
2018-04-23T23:06:23.357Z,15.70
2018-04-23T23:08:51.658Z,15.71
2018-04-23T23:11:19.916Z,15.78
2018-04-23T23:13:48.194Z,15.49
2018-04-23T23:16:16.474Z,15.52
2018-04-23T23:18:44.747Z,15.58
2018-04-23T23:21:13.034Z,15.72
2018-04-23T23:23:42.269Z,15.58
2018-04-23T23:26:10.550Z,15.64
2018-04-23T23:28:38.847Z,15.38
2018-04-23T23:31:07.127Z,15.27
2018-04-23T23:33:35.410Z,15.10
2018-04-23T23:36:03.683Z,15.11
2018-04-23T23:38:32.436Z,15.08
2018-04-23T23:41:00.611Z,15.06
2018-04-23T23:43:28.887Z,15.00
2018-04-23T23:45:57.170Z,15.07
2018-04-23T23:48:25.442Z,14.92
2018-04-23T23:50:53.723Z,15.14
2018-04-23T23:53:22.022Z,15.08
2018-04-23T23:55:50.314Z,15.02
2018-04-23T23:58:18.610Z,14.86
